createdAt,value
2022-10-16T00:02:16.260Z,12.70
2022-10-16T00:05:04.297Z,12.70
2022-10-16T00:07:52.027Z,12.60
2022-10-16T00:10:41.711Z,12.70
2022-10-16T00:13:29.815Z,12.70
2022-10-16T00:16:17.923Z,12.70
2022-10-16T00:19:05.671Z,12.70
2022-10-16T00:21:52.910Z,12.70
2022-10-16T00:24:40.950Z,12.70
2022-10-16T00:27:30.437Z,12.70
2022-10-16T00:30:18.348Z,12.70
2022-10-16T00:33:06.925Z,12.70
2022-10-16T00:35:55.015Z,12.70
2022-10-16T00:38:42.865Z,12.00
2022-10-16T00:41:30.755Z,12.70
2022-10-16T00:44:37.525Z,12.70
2022-10-16T00:47:30.049Z,12.70
2022-10-16T00:50:20.675Z,12.60
2022-10-16T00:53:08.481Z,12.70
2022-10-16T00:55:56.248Z,12.60
2022-10-16T00:58:44.130Z,12.60
2022-10-16T01:01:32.448Z,12.60
2022-10-16T01:04:21.820Z,12.50
2022-10-16T01:07:15.014Z,12.50
2022-10-16T01:10:08.830Z,12.70
2022-10-16T01:13:00.672Z,12.60
2022-10-16T01:15:53.420Z,12.60
2022-10-16T01:18:45.496Z,12.50
2022-10-16T01:21:37.359Z,12.50
2022-10-16T01:24:33.663Z,13.10
2022-10-16T01:27:23.097Z,12.50
2022-10-16T01:30:14.924Z,12.50
2022-10-16T01:33:05.545Z,12.50
2022-10-16T01:35:55.158Z,12.60
2022-10-16T01:38:43.666Z,12.50
2022-10-16T01:41:34.457Z,12.50
2022-10-16T01:44:25.484Z,12.50
2022-10-16T01:47:14.719Z,12.50
2022-10-16T01:50:03.211Z,12.50
2022-10-16T01:52:54.971Z,12.50
2022-10-16T01:55:46.114Z,12.50
2022-10-16T01:58:37.385Z,12.50
2022-10-16T02:01:30.497Z,12.50
2022-10-16T02:04:19.607Z,12.50
2022-10-16T02:07:07.381Z,12.50
2022-10-16T02:09:54.491Z,13.30
2022-10-16T02:12:44.537Z,12.50
2022-10-16T02:15:33.031Z,12.40
2022-10-16T02:18:24.596Z,12.40
2022-10-16T02:21:15.803Z,12.40
2022-10-16T02:24:05.405Z,12.50
2022-10-16T02:26:55.085Z,12.50
2022-10-16T02:29:46.794Z,12.50
2022-10-16T02:32:35.220Z,12.60
2022-10-16T02:35:25.574Z,12.50
2022-10-16T02:38:14.255Z,12.60
2022-10-16T02:41:01.847Z,12.60
2022-10-16T02:43:50.238Z,12.50
2022-10-16T02:46:37.983Z,12.40
2022-10-16T02:49:27.367Z,12.50
2022-10-16T02:52:16.602Z,12.40
2022-10-16T02:55:04.047Z,12.40
2022-10-16T02:57:51.660Z,12.40
2022-10-16T03:00:40.111Z,12.40
2022-10-16T03:03:29.074Z,12.50
2022-10-16T03:06:17.253Z,12.40
2022-10-16T03:09:06.837Z,12.30
2022-10-16T03:11:54.406Z,12.40
2022-10-16T03:14:44.006Z,12.40
2022-10-16T03:17:31.679Z,12.40
2022-10-16T03:20:19.284Z,12.40
2022-10-16T03:23:09.216Z,12.50
2022-10-16T03:25:58.082Z,12.50
2022-10-16T03:28:46.561Z,12.50
2022-10-16T03:31:34.232Z,12.50
2022-10-16T03:34:21.985Z,12.50
2022-10-16T03:37:09.673Z,12.50
2022-10-16T03:39:57.633Z,12.60
2022-10-16T03:42:47.495Z,12.50
2022-10-16T03:45:35.978Z,12.50
2022-10-16T03:48:23.645Z,12.40
2022-10-16T03:51:11.604Z,12.50
2022-10-16T03:53:59.552Z,12.40
2022-10-16T03:56:47.775Z,12.30
2022-10-16T03:59:37.414Z,12.50
2022-10-16T04:02:25.475Z,13.50
2022-10-16T04:05:13.786Z,12.20
2022-10-16T04:08:01.171Z,12.20
2022-10-16T04:10:49.309Z,12.10
2022-10-16T04:13:36.755Z,12.00
2022-10-16T04:16:27.550Z,12.00
2022-10-16T04:19:15.698Z,12.10
2022-10-16T04:22:03.303Z,12.10
2022-10-16T04:24:51.753Z,12.20
2022-10-16T04:27:42.271Z,12.10
2022-10-16T04:30:34.637Z,12.10
2022-10-16T04:33:24.316Z,12.20
2022-10-16T04:36:12.173Z,12.20
2022-10-16T04:39:00.026Z,12.10
2022-10-16T04:41:48.399Z,12.10
2022-10-16T04:44:36.082Z,12.10
2022-10-16T04:47:25.045Z,12.00
2022-10-16T04:50:14.567Z,12.10
2022-10-16T04:53:08.339Z,12.10
2022-10-16T04:55:57.181Z,12.10
2022-10-16T04:58:44.926Z,12.10
2022-10-16T05:01:32.471Z,12.10
2022-10-16T05:04:21.360Z,12.10
2022-10-16T05:07:11.762Z,11.40
2022-10-16T05:09:59.393Z,12.10
2022-10-16T05:12:50.611Z,12.20
2022-10-16T05:15:38.650Z,12.10
2022-10-16T05:18:29.694Z,12.30
2022-10-16T05:21:17.138Z,11.10
2022-10-16T05:24:06.533Z,12.10
2022-10-16T05:26:54.043Z,12.10
2022-10-16T05:29:41.365Z,12.20
2022-10-16T05:32:28.923Z,12.20
2022-10-16T05:35:17.711Z,12.20
2022-10-16T05:38:05.752Z,12.10
2022-10-16T05:40:54.831Z,12.10
2022-10-16T05:43:42.407Z,12.20
2022-10-16T05:46:30.566Z,12.10
2022-10-16T05:49:18.735Z,12.10
2022-10-16T05:52:11.481Z,12.00
2022-10-16T05:54:59.106Z,12.10
2022-10-16T05:57:48.804Z,12.10
2022-10-16T06:00:37.077Z,12.10
2022-10-16T06:03:25.702Z,12.10
2022-10-16T06:06:14.497Z,12.10
2022-10-16T06:09:02.705Z,12.10
2022-10-16T06:11:55.627Z,12.10
2022-10-16T06:17:32.509Z,12.10
2022-10-16T06:20:23.006Z,12.10
2022-10-16T06:23:10.722Z,12.80
2022-10-16T06:26:06.294Z,12.10
2022-10-16T06:28:54.268Z,12.10
2022-10-16T06:31:43.436Z,12.20
2022-10-16T06:34:31.060Z,12.10
2022-10-16T06:37:18.819Z,12.20
2022-10-16T06:40:06.791Z,12.10
2022-10-16T06:42:57.199Z,12.10
2022-10-16T06:45:44.639Z,12.10
2022-10-16T06:48:33.971Z,12.70
2022-10-16T06:51:22.051Z,12.20
2022-10-16T06:54:16.215Z,12.20
2022-10-16T06:57:05.542Z,12.20
2022-10-16T06:59:55.337Z,12.20
2022-10-16T07:02:43.817Z,12.20
2022-10-16T07:05:33.124Z,12.30
2022-10-16T07:08:20.426Z,12.30
2022-10-16T07:11:09.090Z,12.40
2022-10-16T07:13:57.013Z,12.50
2022-10-16T07:16:44.814Z,12.60
2022-10-16T07:19:34.422Z,12.70
2022-10-16T07:22:24.723Z,12.80
2022-10-16T07:25:13.451Z,12.90
2022-10-16T07:28:01.054Z,13.00
2022-10-16T07:30:48.726Z,13.10
2022-10-16T07:33:37.510Z,13.10
2022-10-16T07:36:25.757Z,13.10
2022-10-16T07:39:16.106Z,13.20
2022-10-16T07:42:03.644Z,13.50
2022-10-16T07:44:53.960Z,13.20
2022-10-16T07:47:41.243Z,13.20
2022-10-16T07:50:31.924Z,13.20
2022-10-16T07:53:22.435Z,13.20
2022-10-16T07:56:14.208Z,13.30
2022-10-16T07:59:01.656Z,13.30
2022-10-16T08:01:51.243Z,13.40
2022-10-16T08:04:39.290Z,13.50
2022-10-16T08:07:27.210Z,13.50
2022-10-16T08:10:18.054Z,13.60
2022-10-16T08:15:56.206Z,13.70
2022-10-16T08:18:44.468Z,13.80
2022-10-16T08:21:32.536Z,13.70
2022-10-16T08:24:20.648Z,13.80
2022-10-16T08:27:10.050Z,13.70
2022-10-16T08:29:58.821Z,13.90
2022-10-16T08:32:46.332Z,13.80
2022-10-16T08:35:34.043Z,13.90
2022-10-16T08:38:24.429Z,13.90
2022-10-16T08:41:30.227Z,13.70
2022-10-16T08:44:39.500Z,13.90
2022-10-16T08:47:28.930Z,14.00
2022-10-16T08:50:19.595Z,14.20
2022-10-16T08:53:07.969Z,14.30
2022-10-16T08:55:56.679Z,14.30
2022-10-16T08:58:52.940Z,14.30
2022-10-16T09:01:43.806Z,14.30
2022-10-16T09:04:55.624Z,14.40
2022-10-16T09:07:48.077Z,14.50
2022-10-16T09:10:42.933Z,14.60
2022-10-16T09:13:32.292Z,14.70
2022-10-16T09:16:23.539Z,14.70
2022-10-16T09:19:16.034Z,14.70
2022-10-16T09:22:12.909Z,14.80
2022-10-16T09:25:02.933Z,14.80
2022-10-16T09:27:51.067Z,14.80
2022-10-16T09:30:39.869Z,15.10
2022-10-16T09:33:30.301Z,15.00
2022-10-16T09:36:21.710Z,15.10
2022-10-16T09:39:12.572Z,15.10
2022-10-16T09:42:00.569Z,15.10
2022-10-16T09:44:50.727Z,15.20
2022-10-16T09:47:41.926Z,15.30
2022-10-16T09:50:30.683Z,15.40
2022-10-16T09:53:23.701Z,15.40
2022-10-16T09:56:14.929Z,15.50
2022-10-16T09:59:03.323Z,15.50
2022-10-16T10:01:52.184Z,15.60
2022-10-16T10:04:41.834Z,15.70
2022-10-16T10:07:29.937Z,15.70
2022-10-16T10:10:23.516Z,15.60
2022-10-16T10:13:19.545Z,15.70
2022-10-16T10:16:07.690Z,15.70
2022-10-16T10:19:00.431Z,14.30
2022-10-16T10:21:48.170Z,15.90
2022-10-16T10:24:35.954Z,16.00
2022-10-16T10:27:26.087Z,16.00
2022-10-16T10:30:18.343Z,16.00
2022-10-16T10:33:13.769Z,16.00
2022-10-16T10:36:06.951Z,16.00
2022-10-16T10:38:58.062Z,16.10
2022-10-16T10:42:12.887Z,16.20
2022-10-16T10:45:13.918Z,16.30
2022-10-16T10:48:15.255Z,16.40
2022-10-16T10:51:04.177Z,16.60
2022-10-16T10:53:54.603Z,16.70
2022-10-16T10:56:49.470Z,16.70
2022-10-16T10:59:55.189Z,16.80
2022-10-16T11:02:44.554Z,16.80
2022-10-16T11:05:43.616Z,16.80
2022-10-16T11:08:33.959Z,16.80
2022-10-16T11:11:22.949Z,17.00
2022-10-16T11:14:16.727Z,17.00
2022-10-16T11:17:06.730Z,16.90
2022-10-16T11:19:56.826Z,16.80
2022-10-16T11:22:48.275Z,16.60
2022-10-16T11:25:38.099Z,16.60
2022-10-16T11:28:31.014Z,16.70
2022-10-16T11:31:21.719Z,16.70
2022-10-16T11:34:18.277Z,16.70
2022-10-16T11:37:07.964Z,16.80
2022-10-16T11:39:59.869Z,16.90
2022-10-16T11:42:50.912Z,17.10
2022-10-16T11:45:42.357Z,17.20
2022-10-16T11:48:32.520Z,17.10
2022-10-16T11:51:22.966Z,17.10
2022-10-16T11:54:17.829Z,17.10
2022-10-16T11:57:10.804Z,17.10
2022-10-16T12:00:00.648Z,17.10
2022-10-16T12:02:53.085Z,17.20
2022-10-16T12:05:50.765Z,17.20
2022-10-16T12:08:38.485Z,17.20
2022-10-16T12:11:33.311Z,17.00
2022-10-16T12:14:23.958Z,17.00
2022-10-16T12:17:25.623Z,17.10
2022-10-16T12:20:24.946Z,17.30
2022-10-16T12:23:20.719Z,17.50
2022-10-16T12:26:08.706Z,17.70
2022-10-16T12:28:57.682Z,17.80
2022-10-16T12:31:57.512Z,17.90
2022-10-16T12:34:46.695Z,18.00
2022-10-16T12:37:35.601Z,18.10
2022-10-16T12:40:28.456Z,18.20
2022-10-16T12:43:30.290Z,18.20
2022-10-16T12:46:25.861Z,18.20
2022-10-16T12:49:25.487Z,18.20
2022-10-16T12:52:26.331Z,18.30
2022-10-16T12:55:18.255Z,18.30
2022-10-16T12:58:15.869Z,18.20
2022-10-16T13:01:10.872Z,18.20
2022-10-16T13:04:15.617Z,18.20
2022-10-16T13:07:12.953Z,18.20
2022-10-16T13:10:06.181Z,18.20
2022-10-16T13:13:12.927Z,18.10
2022-10-16T13:16:07.626Z,18.10
2022-10-16T13:19:01.156Z,18.00
2022-10-16T13:21:51.869Z,18.00
2022-10-16T13:24:48.246Z,18.00
2022-10-16T13:27:42.046Z,18.10
2022-10-16T13:30:31.199Z,18.30
2022-10-16T13:33:20.119Z,18.40
2022-10-16T13:36:08.990Z,18.40
2022-10-16T13:39:07.101Z,18.20
2022-10-16T13:42:08.951Z,18.10
2022-10-16T13:44:57.697Z,18.10
2022-10-16T13:47:46.123Z,18.10
2022-10-16T13:50:33.580Z,18.10
2022-10-16T13:53:22.148Z,18.20
2022-10-16T13:56:13.121Z,18.30
2022-10-16T13:59:03.136Z,18.20
2022-10-16T14:01:51.376Z,18.20
2022-10-16T14:04:40.966Z,18.10
2022-10-16T14:07:29.979Z,18.00
2022-10-16T14:10:22.669Z,18.00
2022-10-16T14:13:15.753Z,17.80
2022-10-16T14:16:09.045Z,18.00
2022-10-16T14:18:59.792Z,17.90
2022-10-16T14:21:48.002Z,17.90
2022-10-16T14:24:37.797Z,17.90
2022-10-16T14:27:30.788Z,17.90
2022-10-16T14:30:20.544Z,17.80
2022-10-16T14:33:22.905Z,17.60
2022-10-16T14:36:13.986Z,17.70
2022-10-16T14:39:03.972Z,17.50
2022-10-16T14:41:52.945Z,17.60
2022-10-16T14:44:42.471Z,17.60
2022-10-16T14:47:30.693Z,17.60
2022-10-16T14:50:20.043Z,17.70
2022-10-16T14:53:10.835Z,17.70
2022-10-16T14:55:58.121Z,19.00
2022-10-16T14:58:49.343Z,17.80
2022-10-16T15:01:39.723Z,17.80
2022-10-16T15:04:27.463Z,16.10
2022-10-16T15:07:29.774Z,17.70
2022-10-16T15:10:28.653Z,17.70
2022-10-16T15:13:16.503Z,17.60
2022-10-16T15:16:04.114Z,17.50
2022-10-16T15:18:51.505Z,17.40
2022-10-16T15:21:39.434Z,17.50
2022-10-16T15:24:28.279Z,17.30
2022-10-16T15:27:16.111Z,17.30
2022-10-16T15:30:04.068Z,17.30
2022-10-16T15:32:52.321Z,17.20
2022-10-16T15:35:40.167Z,17.20
2022-10-16T15:38:29.003Z,17.10
2022-10-16T15:41:19.909Z,17.10
2022-10-16T15:44:08.609Z,17.00
2022-10-16T15:46:56.854Z,16.90
2022-10-16T15:49:44.206Z,16.90
2022-10-16T15:52:32.932Z,16.70
2022-10-16T15:55:20.854Z,16.70
2022-10-16T15:58:10.204Z,16.50
2022-10-16T16:00:58.302Z,16.50
2022-10-16T16:03:46.695Z,16.50
2022-10-16T16:06:36.545Z,16.40
2022-10-16T16:09:24.120Z,16.30
2022-10-16T16:12:11.880Z,16.20
2022-10-16T16:15:04.881Z,16.20
2022-10-16T16:17:55.957Z,16.00
2022-10-16T16:20:44.150Z,16.00
2022-10-16T16:23:33.328Z,15.90
2022-10-16T16:26:27.163Z,15.90
2022-10-16T16:29:16.498Z,15.90
2022-10-16T16:32:05.482Z,15.80
2022-10-16T16:34:53.168Z,15.80
2022-10-16T16:37:41.317Z,15.20
2022-10-16T16:40:28.935Z,15.60
2022-10-16T16:43:16.707Z,15.60
2022-10-16T16:46:04.875Z,15.50
2022-10-16T16:48:56.527Z,15.50
2022-10-16T16:51:44.646Z,15.40
2022-10-16T16:57:22.132Z,15.40
2022-10-16T17:00:11.028Z,15.30
2022-10-16T17:02:58.528Z,15.40
2022-10-16T17:05:56.908Z,15.30
2022-10-16T17:08:44.969Z,16.10
2022-10-16T17:11:33.045Z,15.30
2022-10-16T17:14:20.736Z,15.30
2022-10-16T17:17:08.775Z,15.30
2022-10-16T17:19:56.311Z,15.50
2022-10-16T17:22:46.539Z,15.00
2022-10-16T17:25:34.283Z,15.40
2022-10-16T17:28:22.378Z,15.30
2022-10-16T17:33:59.530Z,15.00
2022-10-16T17:36:47.450Z,14.70
2022-10-16T17:39:36.633Z,14.60
2022-10-16T17:42:23.933Z,14.40
2022-10-16T17:45:11.824Z,14.40
2022-10-16T17:48:00.262Z,14.40
2022-10-16T17:50:50.961Z,14.40
2022-10-16T17:53:38.579Z,14.50
2022-10-16T17:56:27.748Z,14.40
2022-10-16T17:59:15.961Z,14.40
2022-10-16T18:02:04.382Z,14.40
2022-10-16T18:04:53.286Z,14.40
2022-10-16T18:10:29.862Z,14.40
2022-10-16T18:13:18.936Z,14.30
2022-10-16T18:16:09.562Z,14.30
2022-10-16T18:18:58.320Z,14.30
2022-10-16T18:21:45.451Z,14.30
2022-10-16T18:24:32.888Z,14.30
2022-10-16T18:27:20.566Z,14.30
2022-10-16T18:30:10.169Z,14.30
2022-10-16T18:32:57.401Z,14.40
2022-10-16T18:35:45.442Z,14.30
2022-10-16T18:38:33.832Z,14.30
2022-10-16T18:41:21.567Z,14.40
2022-10-16T18:44:10.835Z,14.80
2022-10-16T18:47:00.123Z,14.30
2022-10-16T18:49:49.804Z,14.30
2022-10-16T18:52:37.674Z,14.20
2022-10-16T18:55:28.987Z,14.10
2022-10-16T18:58:19.037Z,14.20
2022-10-16T19:01:07.206Z,14.20
2022-10-16T19:03:57.324Z,14.20
2022-10-16T19:06:46.115Z,14.20
2022-10-16T19:09:33.711Z,14.20
2022-10-16T19:12:21.877Z,14.10
2022-10-16T19:15:10.252Z,14.20
2022-10-16T19:17:57.805Z,14.20
2022-10-16T19:20:47.322Z,14.20
2022-10-16T19:23:36.136Z,14.20
2022-10-16T19:26:23.803Z,14.20
2022-10-16T19:29:12.051Z,14.20
2022-10-16T19:32:01.732Z,14.20
2022-10-16T19:34:53.460Z,14.10
2022-10-16T19:37:42.826Z,14.10
2022-10-16T19:40:30.872Z,14.10
2022-10-16T19:43:19.530Z,14.10
2022-10-16T19:46:07.414Z,14.10
2022-10-16T19:48:56.293Z,14.00
2022-10-16T19:51:44.024Z,14.00
2022-10-16T19:54:33.705Z,14.10
2022-10-16T19:57:21.132Z,13.90
2022-10-16T20:00:10.306Z,13.90
2022-10-16T20:02:57.999Z,13.90
2022-10-16T20:05:51.616Z,13.90
2022-10-16T20:08:41.250Z,13.90
2022-10-16T20:11:30.950Z,13.80
2022-10-16T20:14:18.716Z,14.00
2022-10-16T20:17:06.552Z,11.90
2022-10-16T20:19:54.814Z,13.90
2022-10-16T20:22:42.232Z,13.90
2022-10-16T20:25:30.119Z,14.00
2022-10-16T20:28:20.584Z,14.00
2022-10-16T20:31:09.970Z,14.10
2022-10-16T20:33:58.243Z,14.00
2022-10-16T20:36:46.724Z,14.50
2022-10-16T20:39:34.410Z,14.00
2022-10-16T20:42:22.394Z,14.00
2022-10-16T20:45:11.362Z,13.90
2022-10-16T20:47:58.970Z,13.90
2022-10-16T20:50:46.565Z,13.90
2022-10-16T20:53:36.137Z,14.30
2022-10-16T20:56:26.637Z,13.90
2022-10-16T20:59:14.395Z,14.70
2022-10-16T21:02:03.546Z,13.80
2022-10-16T21:04:51.214Z,13.80
2022-10-16T21:07:38.659Z,13.90
2022-10-16T21:10:26.109Z,13.80
2022-10-16T21:13:13.720Z,12.10
2022-10-16T21:16:01.191Z,13.70
2022-10-16T21:18:49.996Z,13.60
2022-10-16T21:21:39.017Z,13.60
2022-10-16T21:24:26.937Z,13.70
2022-10-16T21:27:14.805Z,13.40
2022-10-16T21:30:02.877Z,13.60
2022-10-16T21:32:50.689Z,13.50
2022-10-16T21:35:39.780Z,13.50
2022-10-16T21:38:27.451Z,13.50
2022-10-16T21:41:15.932Z,13.40
2022-10-16T21:44:03.613Z,13.50
2022-10-16T21:46:51.883Z,13.70
2022-10-16T21:49:39.704Z,13.40
2022-10-16T21:52:28.647Z,13.30
2022-10-16T21:55:16.306Z,13.50
2022-10-16T21:58:03.958Z,13.40
2022-10-16T22:00:51.651Z,13.40
2022-10-16T22:03:39.474Z,15.40
2022-10-16T22:06:27.873Z,13.40
2022-10-16T22:09:16.838Z,13.30
2022-10-16T22:12:04.246Z,13.50
2022-10-16T22:14:51.774Z,13.40
2022-10-16T22:17:39.725Z,13.70
2022-10-16T22:20:28.384Z,13.40
2022-10-16T22:23:17.061Z,13.40
2022-10-16T22:26:08.536Z,13.40
2022-10-16T22:28:57.031Z,13.40
2022-10-16T22:31:45.600Z,13.50
2022-10-16T22:34:33.844Z,13.30
2022-10-16T22:37:21.300Z,13.40
2022-10-16T22:40:10.003Z,13.40
2022-10-16T22:42:59.266Z,13.30
2022-10-16T22:45:46.850Z,13.30
2022-10-16T22:48:34.962Z,13.30
2022-10-16T22:51:23.252Z,13.30
2022-10-16T22:54:13.679Z,13.30
2022-10-16T22:57:01.019Z,13.50
2022-10-16T22:59:50.078Z,13.60
2022-10-16T23:02:38.245Z,13.20
2022-10-16T23:05:26.129Z,13.20
2022-10-16T23:08:15.624Z,13.20
2022-10-16T23:11:06.198Z,12.90
2022-10-16T23:13:54.509Z,13.20
2022-10-16T23:16:43.737Z,13.20
2022-10-16T23:19:31.590Z,13.50
2022-10-16T23:22:19.553Z,13.10
2022-10-16T23:25:09.594Z,13.10
2022-10-16T23:27:57.381Z,13.30
2022-10-16T23:30:47.093Z,13.20
2022-10-16T23:33:36.726Z,13.20
2022-10-16T23:36:25.086Z,13.20
2022-10-16T23:39:12.507Z,15.30
2022-10-16T23:41:59.972Z,13.30
2022-10-16T23:44:47.380Z,13.30
2022-10-16T23:47:35.380Z,13.30
2022-10-16T23:50:24.544Z,13.30
2022-10-16T23:53:12.200Z,13.30
2022-10-16T23:56:00.372Z,13.30
2022-10-16T23:58:48.537Z,13.30
